Terminal Aerodrome Forecast
Issued by NWS Sterling, VA

Current Version | Previous Version | Text Only | Print | Product List | Glossary Off
Versions: 1 2 3 4 5 6 7 8 9 10 11 12 13 14 15 16 17 18 19 20 21 22 23 24 25 26 27 28 29

000
FTUS41 KLWX 232325
TAFDCA
TAF
KDCA 232325Z 2400/2424 30006KT P6SM VCTS BKN060CB
     FM240200 VRB03KT P6SM BKN060
     FM240700 30004KT P6SM SCT070
     FM241000 36004KT P6SM SCT250
     FM241600 09004KT P6SM FEW050
     FM241900 15004KT P6SM SCT050=

USA.gov is the U.S. government's official web portal to all federal, state and local government web resources and services.